createdAt,value
2019-05-01T00:03:55.212Z,32.99
2019-05-01T00:09:03.147Z,30.84
2019-05-01T00:14:11.131Z,27.49
2019-05-01T00:19:18.979Z,24.78
2019-05-01T00:24:26.892Z,22.61
2019-05-01T00:29:34.852Z,20.81
2019-05-01T00:34:42.794Z,19.74
2019-05-01T00:39:50.806Z,20.18
2019-05-01T00:44:59.090Z,22.90
2019-05-01T00:50:07.195Z,20.66
2019-05-01T00:55:15.188Z,20.44
2019-05-01T01:00:24.193Z,18.87
2019-05-01T01:05:32.146Z,18.54
2019-05-01T01:10:40.041Z,20.56
2019-05-01T01:15:48.081Z,20.74
2019-05-01T01:20:56.229Z,21.74
2019-05-01T01:26:04.379Z,20.71
2019-05-01T01:31:12.234Z,21.02
2019-05-01T01:36:20.161Z,21.14
2019-05-01T01:41:27.991Z,20.64
2019-05-01T01:46:36.052Z,20.33
2019-05-01T01:51:43.923Z,18.90
2019-05-01T01:56:52.422Z,18.65
2019-05-01T02:02:00.512Z,18.83
2019-05-01T02:07:08.410Z,17.94
2019-05-01T02:12:16.544Z,18.05
2019-05-01T02:17:24.733Z,16.85
2019-05-01T02:22:32.586Z,18.62
2019-05-01T02:27:40.666Z,20.21
2019-05-01T02:32:48.397Z,19.76
2019-05-01T02:37:56.287Z,19.24
2019-05-01T02:43:04.054Z,17.34
2019-05-01T02:48:11.991Z,18.85
2019-05-01T02:53:22.650Z,18.72
2019-05-01T02:58:20.408Z,18.09
2019-05-01T03:03:28.173Z,20.85
2019-05-01T03:08:36.097Z,19.61
2019-05-01T03:13:44.007Z,20.14
2019-05-01T03:18:52.083Z,18.95
2019-05-01T03:24:02.209Z,20.86
2019-05-01T03:29:09.899Z,19.49
2019-05-01T03:34:19.842Z,19.21
2019-05-01T03:39:27.682Z,19.01
2019-05-01T03:44:35.603Z,22.49
2019-05-01T03:49:43.444Z,19.50
2019-05-01T03:54:52.587Z,22.71
2019-05-01T04:00:00.409Z,20.26
2019-05-01T04:05:08.238Z,18.42
2019-05-01T04:10:16.342Z,18.41
2019-05-01T04:15:24.559Z,20.69
2019-05-01T04:20:32.744Z,20.97
2019-05-01T04:25:42.026Z,16.60
2019-05-01T04:30:51.054Z,17.57
2019-05-01T04:35:59.123Z,17.86
2019-05-01T04:41:07.080Z,15.11
2019-05-01T04:46:15.208Z,16.32
2019-05-01T04:51:23.767Z,15.69
2019-05-01T04:56:32.129Z,18.81
2019-05-01T05:01:40.110Z,15.99
2019-05-01T05:06:51.558Z,17.22
2019-05-01T05:11:51.046Z,18.34
2019-05-01T05:16:59.097Z,15.53
2019-05-01T05:22:06.953Z,19.36
2019-05-01T05:27:15.222Z,15.62
2019-05-01T05:32:23.310Z,13.96
2019-05-01T05:37:31.018Z,16.07
2019-05-01T05:42:42.741Z,15.78
2019-05-01T05:47:40.535Z,15.39
2019-05-01T05:52:48.344Z,13.52
2019-05-01T05:57:56.053Z,12.24
2019-05-01T06:03:10.495Z,15.06
2019-05-01T06:08:14.425Z,14.16
2019-05-01T06:13:17.731Z,12.16
2019-05-01T06:18:21.001Z,12.45
2019-05-01T06:23:34.633Z,11.34
2019-05-01T06:28:33.649Z,12.68
2019-05-01T06:34:01.466Z,11.12
2019-05-01T06:38:49.394Z,10.04
2019-05-01T06:49:07.091Z,10.96
2019-05-01T06:54:16.223Z,11.72
2019-05-01T06:59:26.133Z,10.56
2019-05-01T07:04:32.422Z,9.94
2019-05-01T07:09:37.518Z,12.33
2019-05-01T07:14:47.035Z,9.73
2019-05-01T07:19:53.049Z,9.33
2019-05-01T07:25:04.176Z,9.42
2019-05-01T07:30:15.951Z,10.53
2019-05-01T07:35:10.330Z,10.35
2019-05-01T07:40:21.200Z,10.61
2019-05-01T07:45:26.659Z,9.99
2019-05-01T07:50:33.455Z,10.93
2019-05-01T07:55:41.296Z,9.77
2019-05-01T08:00:49.152Z,10.05
2019-05-01T08:05:57.238Z,9.42
2019-05-01T08:11:09.965Z,9.10
2019-05-01T08:16:12.791Z,8.63
2019-05-01T08:21:21.131Z,10.32
2019-05-01T08:26:30.692Z,9.65
2019-05-01T08:31:30.848Z,9.36
2019-05-01T08:36:28.459Z,10.25
2019-05-01T08:41:37.750Z,8.66
2019-05-01T08:46:46.791Z,7.54
2019-05-01T08:51:50.958Z,9.02
2019-05-01T08:56:59.975Z,8.12
2019-05-01T09:02:09.320Z,7.24
2019-05-01T09:07:19.201Z,7.66
2019-05-01T09:12:22.494Z,8.25
2019-05-01T09:17:30.168Z,6.92
2019-05-01T09:22:38.608Z,8.16
2019-05-01T09:27:46.346Z,7.19
2019-05-01T09:32:55.554Z,6.69
2019-05-01T09:38:03.452Z,6.84
2019-05-01T09:43:11.085Z,7.61
2019-05-01T09:48:22.721Z,8.17
2019-05-01T09:53:20.364Z,9.17
2019-05-01T09:58:29.104Z,9.25
2019-05-01T10:03:36.932Z,9.20
2019-05-01T10:08:44.554Z,8.83
2019-05-01T10:13:53.776Z,12.42
2019-05-01T10:18:59.669Z,11.32
2019-05-01T10:24:07.373Z,9.71
2019-05-01T10:29:14.985Z,12.15
2019-05-01T10:34:23.164Z,9.59
2019-05-01T10:39:30.905Z,13.66
2019-05-01T10:44:38.569Z,12.60
2019-05-01T10:49:46.332Z,11.40
2019-05-01T10:54:54.371Z,11.30
2019-05-01T11:00:02.017Z,11.22
2019-05-01T11:05:10.093Z,10.01
2019-05-01T11:10:17.777Z,11.91
2019-05-01T11:15:26.956Z,11.82
2019-05-01T11:20:34.710Z,12.10
2019-05-01T11:25:44.569Z,11.95
2019-05-01T11:30:49.600Z,11.93
2019-05-01T11:36:08.945Z,13.41
2019-05-01T11:41:05.939Z,14.60
2019-05-01T11:46:13.677Z,16.03
2019-05-01T11:51:22.228Z,15.02
2019-05-01T11:56:30.084Z,14.54
2019-05-01T12:01:37.741Z,14.73
2019-05-01T12:06:45.545Z,13.50
2019-05-01T12:11:53.248Z,14.91
2019-05-01T12:17:01.495Z,16.38
2019-05-01T12:22:09.229Z,16.20
2019-05-01T12:27:17.006Z,19.95
2019-05-01T12:32:24.693Z,18.46
2019-05-01T12:37:32.671Z,15.72
2019-05-01T12:42:40.463Z,15.86
2019-05-01T12:47:50.433Z,16.25
2019-05-01T12:52:58.154Z,14.62
2019-05-01T12:58:06.040Z,15.37
2019-05-01T13:03:15.230Z,11.34
2019-05-01T13:08:22.872Z,10.93
2019-05-01T13:13:31.481Z,9.10
2019-05-01T13:18:39.073Z,8.51
2019-05-01T13:23:47.337Z,8.16
2019-05-01T13:28:55.152Z,8.46
2019-05-01T13:34:02.822Z,7.96
2019-05-01T13:39:10.753Z,8.24
2019-05-01T13:44:18.590Z,8.92
2019-05-01T13:49:26.310Z,9.07
2019-05-01T13:54:34.184Z,10.57
2019-05-01T13:59:42.017Z,10.66
2019-05-01T14:04:51.723Z,9.88
2019-05-01T14:10:00.444Z,11.97
2019-05-01T14:15:08.213Z,11.43
2019-05-01T14:20:15.799Z,13.01
2019-05-01T14:25:23.617Z,14.02
2019-05-01T14:30:32.302Z,13.18
2019-05-01T14:35:42.081Z,12.77
2019-05-01T14:40:49.739Z,13.37
2019-05-01T14:45:57.719Z,14.37
2019-05-01T14:51:05.426Z,12.82
2019-05-01T14:56:14.253Z,12.89
2019-05-01T15:01:22.084Z,12.79
2019-05-01T15:06:29.907Z,14.29
2019-05-01T15:11:37.594Z,15.13
2019-05-01T15:16:45.384Z,13.07
2019-05-01T15:21:53.249Z,13.45
2019-05-01T15:27:00.925Z,13.56
2019-05-01T15:32:08.788Z,14.96
2019-05-01T15:37:18.623Z,16.12
2019-05-01T15:42:27.609Z,17.05
2019-05-01T15:47:35.274Z,16.78
2019-05-01T15:52:42.944Z,12.89
2019-05-01T15:57:50.656Z,12.78
2019-05-01T16:02:58.640Z,12.42
2019-05-01T16:08:09.859Z,11.61
2019-05-01T16:13:13.621Z,14.18
2019-05-01T16:18:21.360Z,16.13
2019-05-01T16:23:29.271Z,17.01
2019-05-01T16:28:37.326Z,15.75
2019-05-01T16:33:44.997Z,14.74
2019-05-01T16:38:53.064Z,13.31
2019-05-01T16:44:00.829Z,14.46
2019-05-01T16:49:08.509Z,14.97
2019-05-01T16:54:16.145Z,11.95
2019-05-01T16:59:24.034Z,13.55
2019-05-01T17:04:31.903Z,12.25
2019-05-01T17:09:39.898Z,11.68
2019-05-01T17:14:47.624Z,12.19
2019-05-01T17:19:55.348Z,14.47
2019-05-01T17:25:03.122Z,13.41
2019-05-01T17:30:10.863Z,12.44
2019-05-01T17:35:18.655Z,9.99
2019-05-01T17:40:26.405Z,10.64
2019-05-01T17:45:34.837Z,10.35
2019-05-01T17:50:41.423Z,11.36
2019-05-01T17:55:49.108Z,12.00
2019-05-01T18:00:56.808Z,13.11
2019-05-01T18:06:04.457Z,14.79
2019-05-01T18:11:14.644Z,14.06
2019-05-01T18:16:19.483Z,11.03
2019-05-01T18:21:28.213Z,11.58
2019-05-01T18:26:38.749Z,12.11
2019-05-01T18:31:43.544Z,11.78
2019-05-01T18:36:54.995Z,12.67
2019-05-01T18:41:59.462Z,10.16
2019-05-01T18:47:07.123Z,9.69
2019-05-01T18:52:14.948Z,10.41
2019-05-01T18:57:23.901Z,9.27
2019-05-01T19:02:31.800Z,9.86
2019-05-01T19:07:39.664Z,9.92
2019-05-01T19:12:47.588Z,11.31
2019-05-01T19:17:57.084Z,12.08
2019-05-01T19:23:05.094Z,11.43
2019-05-01T19:28:13.295Z,12.41
2019-05-01T19:33:21.067Z,12.82
2019-05-01T19:38:29.420Z,12.23
2019-05-01T19:43:40.058Z,12.04
2019-05-01T19:48:45.478Z,11.17
2019-05-01T19:53:51.772Z,12.26
2019-05-01T19:58:58.118Z,10.59
2019-05-01T20:04:08.511Z,9.53
2019-05-01T20:09:16.102Z,10.91
2019-05-01T20:14:13.877Z,10.60
2019-05-01T20:19:21.864Z,10.58
2019-05-01T20:24:29.856Z,11.80
2019-05-01T20:29:37.813Z,12.55
2019-05-01T20:34:47.993Z,11.46
2019-05-01T20:39:53.141Z,11.18
2019-05-01T20:45:05.612Z,12.49
2019-05-01T20:50:08.504Z,11.97
2019-05-01T20:55:16.205Z,10.19
2019-05-01T21:00:24.144Z,10.87
2019-05-01T21:05:31.992Z,9.65
2019-05-01T21:10:49.988Z,10.89
2019-05-01T21:15:47.401Z,10.12
2019-05-01T21:20:54.223Z,11.04
2019-05-01T21:26:03.744Z,10.70
2019-05-01T21:31:09.211Z,12.75
2019-05-01T21:36:17.013Z,11.83
2019-05-01T21:41:24.671Z,12.73
2019-05-01T21:46:34.044Z,13.40
2019-05-01T21:51:44.339Z,11.43
2019-05-01T21:56:47.305Z,13.74
2019-05-01T22:01:54.816Z,11.69
2019-05-01T22:07:02.723Z,13.18
2019-05-01T22:12:13.072Z,13.56
2019-05-01T22:17:17.636Z,13.16
2019-05-01T22:22:25.273Z,14.14
2019-05-01T22:27:33.256Z,12.93
2019-05-01T22:32:40.921Z,13.54
2019-05-01T22:37:48.704Z,13.45
2019-05-01T22:42:56.326Z,15.04
2019-05-01T22:48:04.066Z,16.00
2019-05-01T22:53:12.942Z,16.08
2019-05-01T22:58:19.217Z,16.37
2019-05-01T23:03:26.876Z,15.38
2019-05-01T23:08:34.594Z,16.70
2019-05-01T23:13:42.379Z,17.54
2019-05-01T23:18:51.999Z,16.79
2019-05-01T23:24:01.752Z,18.19
2019-05-01T23:29:05.488Z,18.78
2019-05-01T23:34:13.212Z,18.18
2019-05-01T23:39:20.996Z,18.03
2019-05-01T23:44:28.696Z,20.61
2019-05-01T23:49:36.466Z,19.68
2019-05-01T23:54:45.372Z,19.37
2019-05-01T23:59:53.101Z,20.82
